Time;durP1;ratioP1;P1;durP2;ratioP2;P2;SDS_P1;SDS_P2;PMS_P1;PMS_P2;Temp;Humidity;BMP_temperature;BMP_pressure;BME280_temperature;BME280_humidity;BME280_pressure;Samples;Min_cycle;Max_cycle;Signal;HPM_P1;HPM_P2
2022/09/21 00:01:08;;;;;;;;;;;14.10;71.10;;;13.18;100.00;62537.16;4290311;33;20125;-83
2022/09/21 00:03:36;;;;;;;;;;;14.10;71.10;;;13.18;100.00;62537.16;4290133;33;19902;-83
2022/09/21 00:06:05;;;;;;;;;;;14.10;71.20;;;13.18;100.00;62537.16;4291171;33;20141;-83
2022/09/21 00:08:34;;;;;;;;;;;14.10;71.20;;;13.18;100.00;62537.16;4290993;33;20121;-83
2022/09/21 00:11:04;;;;;;;;;;;14.10;71.20;;;-151.14;100.00;62537.16;4291033;33;20142;-83
2022/09/21 00:13:33;;;;;;;;;;;14.10;71.20;;;-151.14;100.00;62537.16;4291155;33;20301;-83
2022/09/21 00:16:04;;;;;;;;;;;14.00;71.10;;;13.20;100.00;82936.16;4291007;33;19909;-83
2022/09/21 00:18:35;;;;;;;;;;;14.10;71.20;;;13.19;100.00;82934.72;4290886;33;19902;-83
2022/09/21 00:21:07;;;;;;;;;;;14.10;71.30;;;13.17;100.00;82931.88;4290981;33;19913;-83
2022/09/21 00:23:36;;;;;;;;;;;14.10;71.30;;;13.17;100.00;82931.88;4290921;33;19911;-83
2022/09/21 00:26:06;;;;;;;;;;;14.00;71.20;;;13.16;100.00;82930.47;4289809;33;19910;-83
2022/09/21 00:28:35;;;;;;;;;;;14.00;71.20;;;13.16;100.00;82930.13;4290582;33;20130;-82
2022/09/21 00:31:05;;;;;;;;;;;14.10;71.40;;;13.16;100.00;62537.16;4266094;33;19902;-83
2022/09/21 00:33:35;;;;;;;;;;;14.10;71.40;;;13.16;100.00;82930.81;4265878;33;19901;-83
2022/09/21 00:36:05;;;;;;;;;;;14.10;71.40;;;13.16;100.00;62537.16;4265751;33;19908;-83
2022/09/21 00:38:33;;;;;;;;;;;14.00;71.50;;;13.16;100.00;62537.16;4290611;33;20032;-83
2022/09/21 00:41:02;;;;;;;;;;;14.00;71.40;;;13.16;100.00;62537.16;4290744;33;20309;-83
2022/09/21 00:43:33;;;;;;;;;;;14.00;71.30;;;13.16;100.00;62537.16;4290752;33;19948;-83
2022/09/21 00:46:03;;;;;;;;;;;14.00;71.30;;;13.16;100.00;83059.88;4265597;33;19910;-83
2022/09/21 00:48:32;;;;;;;;;;;14.10;71.50;;;13.21;100.00;62537.16;4289619;33;20324;-83
2022/09/21 00:51:05;;;;;;;;;;;14.00;71.40;;;13.21;100.00;62537.16;4289725;33;20008;-83
2022/09/21 00:53:34;;;;;;;;;;;14.10;71.40;;;13.21;100.00;62537.16;4290657;33;19915;-83
2022/09/21 00:56:02;;;;;;;;;;;14.00;71.40;;;13.21;100.00;62537.16;4289401;33;20133;-83
2022/09/21 00:58:33;;;;;;;;;;;14.00;71.40;;;13.21;100.00;62537.16;4289291;33;19902;-83
2022/09/21 01:01:02;;;;;;;;;;;14.00;71.40;;;13.21;100.00;62537.16;4289513;33;19980;-82
2022/09/21 01:03:30;;;;;;;;;;;14.00;71.30;;;13.21;100.00;62537.16;4289297;33;20008;-83
2022/09/21 01:06:01;;;;;;;;;;;14.10;71.60;;;-151.14;100.00;62537.16;4265494;33;19902;-83
2022/09/21 01:08:29;;;;;;;;;;;14.00;71.50;;;13.16;100.00;82930.47;4290274;33;19902;-82
2022/09/21 01:11:30;;;;;;;;;;;14.10;71.60;;;13.16;100.00;62537.16;4265566;33;20001;-83
2022/09/21 01:14:21;;;;;;;;;;;14.10;71.70;;;13.13;100.00;82926.22;4286376;33;19902;-83
2022/09/21 01:16:54;;;;;;;;;;;14.00;71.50;;;13.13;100.00;82926.56;4290237;33;19967;-83
2022/09/21 01:19:39;;;;;;;;;;;14.00;71.50;;;13.12;100.00;82925.16;4265393;33;20156;-83
2022/09/21 01:22:14;;;;;;;;;;;14.00;71.60;;;13.12;100.00;82926.56;4289419;33;20027;-83
2022/09/21 01:24:52;;;;;;;;;;;14.00;71.60;;;13.11;100.00;62537.16;4265359;33;19902;-83
2022/09/21 01:27:53;;;;;;;;;;;14.00;71.70;;;-151.14;100.00;62537.16;4305188;33;20279;-83
2022/09/21 01:30:23;;;;;;;;;;;14.00;71.60;;;13.11;100.00;82923.38;4281442;33;19909;-83
2022/09/21 01:32:55;;;;;;;;;;;14.00;71.70;;;13.11;100.00;62537.16;4305202;33;19901;-83
2022/09/21 01:35:25;;;;;;;;;;;14.00;71.60;;;13.11;100.00;62537.16;4305226;33;19902;-83
2022/09/21 01:37:57;;;;;;;;;;;14.00;71.70;;;13.11;100.00;82922.66;4304505;33;19902;-83
2022/09/21 01:40:28;;;;;;;;;;;14.00;71.70;;;13.11;100.00;82923.38;4305252;33;19902;-83
2022/09/21 01:42:57;;;;;;;;;;;14.00;71.70;;;13.10;100.00;82921.97;4305240;33;19909;-83
2022/09/21 01:45:30;;;;;;;;;;;14.00;71.70;;;187.61;100.00;62537.16;4329435;33;20315;-83
2022/09/21 01:48:00;;;;;;;;;;;14.00;71.70;;;13.10;100.00;82921.97;4280867;33;20232;-83
2022/09/21 01:50:34;;;;;;;;;;;14.00;71.80;;;13.10;100.00;82921.97;4305347;33;19909;-83
2022/09/21 01:53:05;;;;;;;;;;;14.00;71.70;;;13.10;100.00;62537.16;4304839;33;19902;-83
2022/09/21 01:55:39;;;;;;;;;;;14.00;71.80;;;13.10;100.00;62537.16;4306056;33;19901;-83
2022/09/21 01:58:12;;;;;;;;;;;14.00;71.90;;;13.10;100.00;82921.25;4280323;33;19902;-83
2022/09/21 02:00:41;;;;;;;;;;;14.00;71.90;;;13.08;100.00;82919.13;4276274;33;19914;-82
2022/09/21 02:03:12;;;;;;;;;;;14.00;71.90;;;13.09;100.00;82919.84;4291901;33;20322;-83
2022/09/21 02:05:41;;;;;;;;;;;14.00;71.90;;;13.08;100.00;62537.16;4288742;33;20316;-83
2022/09/21 02:08:09;;;;;;;;;;;14.00;71.90;;;13.08;100.00;82919.13;4288646;33;19925;-83
2022/09/21 02:10:41;;;;;;;;;;;14.00;71.90;;;13.08;100.00;62537.16;4312539;33;20107;-83
2022/09/21 02:13:09;;;;;;;;;;;14.00;72.00;;;13.08;100.00;82919.13;4288851;33;19910;-83
2022/09/21 02:15:48;;;;;;;;;;;14.00;72.00;;;13.09;100.00;82919.84;4289651;33;19902;-83
2022/09/21 02:18:23;;;;;;;;;;;14.00;72.00;;;13.08;100.00;82918.75;4312551;33;20009;-82
2022/09/21 02:20:54;;;;;;;;;;;14.00;72.00;;;13.08;100.00;62537.16;4288803;33;19976;-83
2022/09/21 02:23:25;;;;;;;;;;;14.00;72.00;;;13.08;100.00;62537.16;4288441;33;19902;-83
2022/09/21 02:25:59;;;;;;;;;;;14.00;72.10;;;187.61;100.00;62537.16;4289597;33;19908;-83
2022/09/21 02:28:33;;;;;;;;;;;14.00;72.00;;;13.07;100.00;62537.16;4288388;33;20009;-83
2022/09/21 02:31:07;;;;;;;;;;;14.00;72.00;;;13.07;100.00;82917.72;4288681;33;19902;-83
2022/09/21 02:33:44;;;;;;;;;;;14.00;72.00;;;13.07;100.00;62537.16;4288373;33;19981;-83
2022/09/21 02:36:19;;;;;;;;;;;14.00;72.10;;;13.08;100.00;62537.16;4289574;33;19902;-83
2022/09/21 02:38:51;;;;;;;;;;;14.00;72.00;;;13.07;100.00;62537.16;4288101;33;19917;-83
2022/09/21 02:41:24;;;;;;;;;;;14.00;72.00;;;13.06;100.00;82916.31;4288554;33;19905;-82
2022/09/21 02:43:59;;;;;;;;;;;14.00;72.10;;;13.07;100.00;62537.16;4288360;33;20137;-83
2022/09/21 02:46:30;;;;;;;;;;;14.00;72.10;;;13.06;100.00;62537.16;4288340;33;19909;-83
2022/09/21 02:49:00;;;;;;;;;;;14.00;72.10;;;-151.14;100.00;62537.16;4264167;33;20007;-83
2022/09/21 02:51:31;;;;;;;;;;;14.00;72.10;;;13.05;100.00;62537.16;4288408;33;20005;-83
2022/09/21 02:54:01;;;;;;;;;;;14.00;72.10;;;13.05;100.00;62537.16;4288182;33;20121;-83
2022/09/21 02:56:31;;;;;;;;;;;13.90;72.10;;;13.05;100.00;82915.94;4288259;33;19909;-83
2022/09/21 02:59:02;;;;;;;;;;;14.00;72.20;;;13.04;100.00;82913.81;4287843;33;19902;-82
2022/09/21 03:01:32;;;;;;;;;;;13.90;72.20;;;13.05;100.00;62537.16;4288311;33;19992;-83
2022/09/21 03:04:01;;;;;;;;;;;13.90;72.20;;;13.04;100.00;82914.53;4287952;33;20128;-83
2022/09/21 03:06:30;;;;;;;;;;;13.90;72.20;;;13.05;100.00;62537.16;4288241;33;20213;-83
2022/09/21 03:08:58;;;;;;;;;;;14.00;72.30;;;13.04;100.00;82913.81;4287974;33;19956;-83
2022/09/21 03:11:27;;;;;;;;;;;13.90;72.20;;;-151.14;100.00;62537.16;4264192;33;19901;-82
2022/09/21 03:13:55;;;;;;;;;;;13.90;72.30;;;13.04;100.00;82913.81;4288058;33;19929;-83
2022/09/21 03:16:24;;;;;;;;;;;14.00;72.30;;;13.04;100.00;82913.81;4289018;33;19901;-83
2022/09/21 03:18:54;;;;;;;;;;;13.90;72.40;;;13.03;100.00;62537.16;4263808;33;20008;-83
2022/09/21 03:21:22;;;;;;;;;;;13.90;72.40;;;13.04;100.00;62537.16;4287196;33;19959;-83
2022/09/21 03:23:51;;;;;;;;;;;13.90;72.40;;;-151.14;100.00;62537.16;4288093;33;20102;-83
2022/09/21 03:26:21;;;;;;;;;;;13.90;72.30;;;13.03;100.00;82912.03;4287879;33;20005;-83
2022/09/21 03:28:49;;;;;;;;;;;13.90;72.40;;;13.02;100.00;82911.34;4311982;33;19901;-83
2022/09/21 03:31:18;;;;;;;;;;;13.90;72.40;;;13.02;100.00;62537.16;4287803;33;19901;-83
2022/09/21 03:33:46;;;;;;;;;;;13.90;72.40;;;13.02;100.00;82910.63;4287941;33;20213;-83
2022/09/21 03:36:16;;;;;;;;;;;13.90;72.50;;;13.03;100.00;82912.03;4287972;33;20004;-83
2022/09/21 03:38:45;;;;;;;;;;;13.90;72.50;;;-151.14;100.00;62537.16;4287674;33;19906;-84
2022/09/21 03:41:14;;;;;;;;;;;13.90;72.50;;;13.02;100.00;66716.16;4287703;33;20008;-83
2022/09/21 03:43:42;;;;;;;;;;;13.90;72.50;;;-151.14;100.00;62537.16;4263836;33;19902;-83
2022/09/21 03:46:11;;;;;;;;;;;13.90;72.50;;;13.05;100.00;82914.88;4287752;33;19902;-83
2022/09/21 03:48:41;;;;;;;;;;;13.90;72.50;;;13.03;100.00;82912.03;4311893;33;19909;-83
2022/09/21 03:51:09;;;;;;;;;;;13.90;72.50;;;13.02;100.00;82910.63;4288637;33;19909;-83
2022/09/21 03:53:39;;;;;;;;;;;13.90;72.60;;;13.01;100.00;82910.28;4288574;33;20000;-83
2022/09/21 03:56:08;;;;;;;;;;;13.90;72.50;;;13.01;100.00;62537.16;4288768;33;19901;-83
2022/09/21 03:58:36;;;;;;;;;;;13.90;72.50;;;13.00;100.00;82907.78;4263582;33;19909;-83
2022/09/21 04:01:05;;;;;;;;;;;13.90;72.50;;;-151.14;100.00;62537.16;4287685;33;20007;-82
2022/09/21 04:03:33;;;;;;;;;;;13.90;73.50;;;13.00;100.00;62537.16;4287559;33;19917;-83
2022/09/21 04:06:06;;;;;;;;;;;13.90;72.70;;;13.00;100.00;82908.16;4288562;33;20269;-83
2022/09/21 04:08:34;;;;;;;;;;;13.90;72.60;;;13.45;100.00;62537.16;4288252;33;19908;-83
2022/09/21 04:11:10;;;;;;;;;;;13.90;72.70;;;13.00;100.00;62537.16;4263467;33;20308;-84
2022/09/21 04:13:40;;;;;;;;;;;13.90;72.60;;;-151.14;100.00;62537.16;4287528;33;19901;-83
2022/09/21 04:16:08;;;;;;;;;;;13.90;72.70;;;-151.14;100.00;62537.16;4287409;33;20008;-83
2022/09/21 04:18:37;;;;;;;;;;;13.90;72.60;;;-151.14;100.00;62537.16;4287217;33;19969;-83
2022/09/21 04:21:06;;;;;;;;;;;13.90;72.70;;;-151.14;100.00;62537.16;4287446;33;19911;-83
2022/09/21 04:23:35;;;;;;;;;;;13.90;72.70;;;-151.14;100.00;62537.16;4287350;33;19988;-83
2022/09/21 04:26:05;;;;;;;;;;;13.90;72.70;;;12.99;100.00;62537.16;4287391;33;20001;-83
2022/09/21 04:28:33;;;;;;;;;;;13.90;72.70;;;-151.14;100.00;62537.16;4287254;33;19943;-83
2022/09/21 04:31:02;;;;;;;;;;;13.90;72.70;;;-151.14;100.00;62537.16;4287498;33;19999;-82
2022/09/21 04:33:30;;;;;;;;;;;13.90;72.70;;;-151.14;100.00;62537.16;4290074;33;19984;-83
2022/09/21 04:35:59;;;;;;;;;;;13.90;72.70;;;-151.14;100.00;62537.16;4314093;33;19946;-83
2022/09/21 04:38:27;;;;;;;;;;;13.90;72.60;;;-151.14;100.00;62537.16;4289708;33;19918;-82
2022/09/21 04:40:56;;;;;;;;;;;13.90;72.80;;;-151.14;100.00;62537.16;4289699;33;19982;-82
2022/09/21 04:43:26;;;;;;;;;;;13.90;72.80;;;-151.14;100.00;62537.16;4265798;33;20125;-83
2022/09/21 04:45:55;;;;;;;;;;;13.90;72.70;;;-151.14;100.00;62537.16;4289503;33;20009;-83
2022/09/21 04:48:23;;;;;;;;;;;13.90;72.80;;;-151.14;100.00;62537.16;4288809;33;19901;-83
2022/09/21 04:50:52;;;;;;;;;;;13.90;72.70;;;-151.14;100.00;62537.16;4266653;33;19909;-83
2022/09/21 04:53:21;;;;;;;;;;;13.90;72.40;;;-151.14;100.00;62537.16;4288737;33;19903;-83
2022/09/21 04:55:49;;;;;;;;;;;13.80;72.00;;;-151.14;100.00;62537.16;4289959;33;19910;-83
2022/09/21 04:58:18;;;;;;;;;;;13.80;71.60;;;-151.14;100.00;62537.16;4288669;33;19910;-83
2022/09/21 05:00:50;;;;;;;;;;;13.80;71.50;;;-151.14;100.00;62537.16;4288972;33;19908;-83
2022/09/21 05:03:19;;;;;;;;;;;13.80;71.40;;;-151.14;100.00;62537.16;4289224;33;19909;-83
2022/09/21 05:05:48;;;;;;;;;;;13.80;71.40;;;-151.14;100.00;62537.16;4290018;33;19999;-83
2022/09/21 05:08:17;;;;;;;;;;;13.80;72.20;;;-151.14;100.00;62537.16;4312928;33;20309;-83
2022/09/21 05:10:44;;;;;;;;;;;13.80;71.40;;;-151.14;100.00;62537.16;4288501;33;19902;-83
2022/09/21 05:13:13;;;;;;;;;;;13.80;71.40;;;-151.14;100.00;62537.16;4289814;33;19992;-83
2022/09/21 05:15:41;;;;;;;;;;;13.70;71.40;;;-151.14;100.00;62537.16;4289806;33;19917;-83
2022/09/21 05:18:11;;;;;;;;;;;13.80;71.40;;;-151.14;100.00;62537.16;4288293;33;19909;-82
2022/09/21 05:20:40;;;;;;;;;;;13.70;71.40;;;-151.14;100.00;62537.16;4289650;33;19910;-83
2022/09/21 05:23:08;;;;;;;;;;;13.70;71.40;;;-151.14;100.00;62537.16;4289594;33;20019;-83
2022/09/21 05:25:37;;;;;;;;;;;13.70;72.20;;;-151.14;100.00;62537.16;4264638;33;19965;-82
2022/09/21 05:28:07;;;;;;;;;;;13.70;71.40;;;-151.14;100.00;62537.16;4288219;33;19906;-83
2022/09/21 05:30:37;;;;;;;;;;;13.70;71.40;;;-151.14;100.00;62537.16;4264373;33;19902;-83
2022/09/21 05:33:05;;;;;;;;;;;13.70;71.30;;;-151.14;100.00;62537.16;4288645;33;19995;-83
2022/09/21 05:35:38;;;;;;;;;;;13.70;71.40;;;-151.14;100.00;62537.16;4288577;33;20187;-83
2022/09/21 05:38:10;;;;;;;;;;;13.60;71.40;;;-151.14;100.00;62537.16;4334978;32;20002;-83
2022/09/21 05:40:39;;;;;;;;;;;13.60;71.50;;;-151.14;100.00;62537.16;4367121;32;19992;-83
2022/09/21 05:43:09;;;;;;;;;;;13.60;71.50;;;-151.14;100.00;62537.16;4317489;33;19909;-83
2022/09/21 05:45:37;;;;;;;;;;;13.60;71.50;;;-151.14;100.00;62537.16;4318020;33;20236;-84
2022/09/21 05:48:11;;;;;;;;;;;13.60;71.60;;;-151.14;100.00;62537.16;4317574;33;20039;-83
2022/09/21 05:50:53;;;;;;;;;;;13.60;71.80;;;-151.14;100.00;62537.16;4317558;33;19909;-82
2022/09/21 05:53:38;;;;;;;;;;;13.60;71.80;;;-151.14;100.00;62537.16;4293397;33;19901;-83
2022/09/21 05:56:12;;;;;;;;;;;13.60;71.80;;;-151.14;100.00;62537.16;4293155;33;19980;-83
2022/09/21 05:58:43;;;;;;;;;;;13.60;71.80;;;12.69;100.00;62537.16;4316963;33;19920;-83
2022/09/21 06:01:25;;;;;;;;;;;13.60;71.90;;;-151.14;100.00;62537.16;4293012;33;19901;-83
2022/09/21 06:03:53;;;;;;;;;;;13.60;71.70;;;-151.14;100.00;62537.16;4316951;33;19902;-83
2022/09/21 06:06:23;;;;;;;;;;;13.60;71.60;;;-151.14;100.00;62537.16;4341621;32;19916;-83
2022/09/21 06:08:52;;;;;;;;;;;13.60;72.60;;;-151.14;100.00;62537.16;4292831;33;20291;-83
2022/09/21 06:11:20;;;;;;;;;;;13.60;71.80;;;-151.14;100.00;62537.16;4318297;33;20094;-83
2022/09/21 06:13:49;;;;;;;;;;;13.60;71.80;;;-151.14;100.00;62537.16;4318133;33;19909;-83
2022/09/21 06:16:17;;;;;;;;;;;13.60;71.80;;;-151.14;100.00;62537.16;4292670;33;19901;-83
2022/09/21 06:18:46;;;;;;;;;;;13.60;71.80;;;-151.14;100.00;62537.16;4316705;33;20004;-83
2022/09/21 06:21:14;;;;;;;;;;;13.60;71.80;;;-151.14;100.00;62537.16;4317881;33;19910;-83
2022/09/21 06:23:44;;;;;;;;;;;13.60;72.00;;;-151.14;100.00;62537.16;4341537;32;19908;-83
2022/09/21 06:26:12;;;;;;;;;;;13.60;72.10;;;-151.14;100.00;62537.16;4317902;33;20219;-83
2022/09/21 06:28:41;;;;;;;;;;;13.60;72.10;;;-151.14;100.00;62537.16;4292349;33;19909;-83
2022/09/21 06:31:10;;;;;;;;;;;13.50;72.10;;;-151.14;100.00;62537.16;4317836;33;19905;-83
2022/09/21 06:33:39;;;;;;;;;;;13.60;72.10;;;-151.14;100.00;62537.16;4299155;33;19985;-83
2022/09/21 06:36:08;;;;;;;;;;;13.50;72.10;;;-151.14;100.00;62537.16;4289565;33;19901;-83
2022/09/21 06:38:36;;;;;;;;;;;13.50;72.30;;;-151.14;100.00;62537.16;4288243;33;19917;-83
2022/09/21 06:41:06;;;;;;;;;;;13.50;72.40;;;-151.14;100.00;62537.16;4288621;33;19901;-83
2022/09/21 06:43:35;;;;;;;;;;;13.50;72.30;;;-151.14;100.00;62537.16;4288361;33;19954;-83
2022/09/21 06:46:04;;;;;;;;;;;13.50;72.50;;;12.78;100.00;62537.16;4288571;33;20224;-83
2022/09/21 06:48:34;;;;;;;;;;;13.50;72.50;;;-151.14;100.00;62537.16;4264321;33;19924;-83
2022/09/21 06:51:04;;;;;;;;;;;13.60;72.60;;;-151.14;100.00;62537.16;4288318;33;20129;-83
2022/09/21 06:53:33;;;;;;;;;;;13.60;72.50;;;-151.14;100.00;62537.16;4288123;33;20262;-83
2022/09/21 06:56:02;;;;;;;;;;;13.50;72.40;;;-151.14;100.00;62537.16;4288401;33;19917;-83
2022/09/21 06:58:33;;;;;;;;;;;13.60;72.50;;;-151.14;100.00;62537.16;4264057;33;19944;-83
2022/09/21 07:01:09;;;;;;;;;;;13.50;72.40;;;-151.14;100.00;62537.16;4312601;33;19909;-83
2022/09/21 07:03:38;;;;;;;;;;;13.50;72.30;;;-151.14;100.00;62537.16;4288161;33;19902;-83
2022/09/21 07:06:07;;;;;;;;;;;13.50;72.30;;;-151.14;100.00;62537.16;4288404;33;19988;-83
2022/09/21 07:08:35;;;;;;;;;;;13.50;72.30;;;-151.14;100.00;62537.16;4288162;33;19902;-83
2022/09/21 07:11:04;;;;;;;;;;;13.50;72.20;;;-151.14;100.00;62537.16;4289372;33;19949;-83
2022/09/21 07:13:34;;;;;;;;;;;13.50;72.10;;;-151.14;100.00;62537.16;4264699;33;19997;-83
2022/09/21 07:16:04;;;;;;;;;;;13.50;71.90;;;-151.14;100.00;62537.16;4264906;33;20125;-83
2022/09/21 07:18:33;;;;;;;;;;;13.50;71.80;;;-151.14;100.00;62537.16;4288995;33;19909;-83
2022/09/21 07:21:03;;;;;;;;;;;13.50;71.70;;;-151.14;100.00;62537.16;4289144;33;19999;-83
2022/09/21 07:23:32;;;;;;;;;;;13.50;71.80;;;-151.14;100.00;62537.16;4290086;33;19902;-84
2022/09/21 07:26:02;;;;;;;;;;;13.50;72.00;;;-151.14;100.00;62537.16;4289415;33;20005;-83
2022/09/21 07:28:30;;;;;;;;;;;13.60;72.20;;;-151.14;100.00;62537.16;4290336;33;19902;-83
2022/09/21 07:31:06;;;;;;;;;;;13.60;72.00;;;-151.14;100.00;62537.16;4289663;33;20005;-83
2022/09/21 07:33:35;;;;;;;;;;;13.60;71.90;;;12.78;100.00;62537.16;4290449;33;19943;-83
2022/09/21 07:36:08;;;;;;;;;;;13.60;71.60;;;-151.14;100.00;62537.16;4313160;33;19909;-83
2022/09/21 07:38:38;;;;;;;;;;;13.60;71.60;;;-151.14;100.00;62537.16;4289306;33;19909;-83
2022/09/21 07:41:07;;;;;;;;;;;13.60;71.70;;;-151.14;100.00;62537.16;4314647;33;19902;-83
2022/09/21 07:43:38;;;;;;;;;;;13.60;71.70;;;-151.14;100.00;62537.16;4291152;33;19909;-83
2022/09/21 07:46:08;;;;;;;;;;;13.60;71.50;;;-151.14;100.00;62537.16;4266070;33;19901;-82
2022/09/21 07:48:36;;;;;;;;;;;13.60;71.50;;;-151.14;100.00;62537.16;4289116;33;20011;-83
2022/09/21 07:51:07;;;;;;;;;;;13.70;71.40;;;-151.14;100.00;62537.16;4265603;33;19908;-83
2022/09/21 07:53:36;;;;;;;;;;;13.70;71.30;;;-151.14;100.00;62537.16;4289395;33;19909;-83
2022/09/21 07:56:06;;;;;;;;;;;13.80;71.20;;;-151.14;100.00;62537.16;4266817;33;19910;-83
2022/09/21 08:01:23;;;;;;;;;;;13.90;71.00;;;-151.14;100.00;62537.16;4290226;33;19901;-83
2022/09/21 08:03:51;;;;;;;;;;;13.90;70.90;;;-151.14;100.00;62537.16;4290414;33;20106;-83
2022/09/21 08:06:20;;;;;;;;;;;13.90;70.80;;;-151.14;100.00;62537.16;4266622;33;20010;-83
2022/09/21 08:08:49;;;;;;;;;;;13.90;70.80;;;-151.14;100.00;62537.16;4292375;33;19909;-83
2022/09/21 08:11:18;;;;;;;;;;;13.90;70.80;;;-151.14;100.00;62537.16;4291947;33;19909;-83
2022/09/21 08:13:47;;;;;;;;;;;13.90;70.60;;;-151.14;100.00;62537.16;4266834;33;20335;-83
2022/09/21 08:16:15;;;;;;;;;;;13.90;70.80;;;-151.14;100.00;62537.16;4267238;33;19903;-83
2022/09/21 08:18:45;;;;;;;;;;;13.90;70.80;;;-151.14;100.00;62537.16;4291198;33;20219;-83
2022/09/21 08:21:14;;;;;;;;;;;13.90;70.70;;;-151.14;100.00;62537.16;4292001;33;19909;-83
2022/09/21 08:23:42;;;;;;;;;;;13.90;70.90;;;-151.14;100.00;62537.16;4268890;33;19906;-83
2022/09/21 08:26:15;;;;;;;;;;;13.90;69.50;;;-151.14;100.00;62537.16;4293481;33;20115;-83
2022/09/21 08:28:43;;;;;;;;;;;13.90;69.00;;;-151.14;100.00;62537.16;4293024;33;19902;-83
2022/09/21 08:31:12;;;;;;;;;;;13.90;68.40;;;14.11;100.00;62537.16;4294138;33;19902;-83
2022/09/21 08:33:40;;;;;;;;;;;13.90;68.80;;;-151.14;100.00;62537.16;4294224;33;20001;-83
2022/09/21 08:36:11;;;;;;;;;;;13.90;68.90;;;-151.14;100.00;62537.16;4293603;33;19902;-83
2022/09/21 08:38:39;;;;;;;;;;;13.90;69.00;;;-151.14;100.00;62537.16;4293127;33;19902;-83
2022/09/21 08:41:17;;;;;;;;;;;14.00;69.30;;;-151.14;100.00;62537.16;4269598;33;19985;-83
2022/09/21 08:43:48;;;;;;;;;;;14.00;69.50;;;-151.14;100.00;62537.16;4295029;33;19909;-83
2022/09/21 08:46:20;;;;;;;;;;;14.00;69.50;;;-151.14;100.00;62537.16;4293713;33;20213;-83
2022/09/21 08:48:50;;;;;;;;;;;14.10;69.60;;;-151.14;100.00;62537.16;4293308;33;19969;-83
2022/09/21 08:51:23;;;;;;;;;;;14.10;69.50;;;-151.14;100.00;62537.16;4294588;33;20004;-83
2022/09/21 08:53:52;;;;;;;;;;;14.10;69.50;;;-151.14;100.00;62537.16;4293128;33;19902;-83
2022/09/21 08:56:22;;;;;;;;;;;14.10;69.60;;;-151.14;100.00;62537.16;4294603;33;19902;-83
2022/09/21 08:58:50;;;;;;;;;;;14.10;69.30;;;-151.14;100.00;62537.16;4268968;33;19902;-83
2022/09/21 09:01:34;;;;;;;;;;;14.10;69.20;;;-151.14;100.00;62537.16;4294024;33;20218;-83
2022/09/21 09:04:20;;;;;;;;;;;14.10;69.00;;;-151.14;100.00;62537.16;4269115;33;19914;-83
2022/09/21 09:06:55;;;;;;;;;;;14.10;68.80;;;-151.14;100.00;62537.16;4268790;33;20217;-83
2022/09/21 09:09:40;;;;;;;;;;;14.20;68.80;;;-151.14;100.00;62537.16;4292620;33;19902;-83
2022/09/21 09:12:20;;;;;;;;;;;14.20;68.60;;;-151.14;100.00;62537.16;4292957;33;20206;-83
2022/09/21 09:15:16;;;;;;;;;;;14.20;68.50;;;-151.14;100.00;62537.16;4293001;33;19985;-82
2022/09/21 09:17:52;;;;;;;;;;;14.20;68.70;;;-151.14;100.00;62537.16;4292585;33;20008;-83
2022/09/21 09:20:23;;;;;;;;;;;14.30;68.50;;;-151.14;100.00;62537.16;4268954;33;20214;-83
2022/09/21 09:23:02;;;;;;;;;;;14.30;68.70;;;-151.14;100.00;62537.16;4293561;33;19902;-83
2022/09/21 09:25:36;;;;;;;;;;;14.30;68.60;;;-151.14;100.00;62537.16;4291312;33;19909;-83
2022/09/21 09:28:22;;;;;;;;;;;14.30;68.70;;;13.40;100.00;82963.09;4266406;33;20221;-83
2022/09/21 09:30:57;;;;;;;;;;;14.30;68.90;;;-151.14;100.00;62537.16;4289539;33;20019;-83
2022/09/21 09:33:27;;;;;;;;;;;14.30;69.10;;;13.38;100.00;82960.22;4265365;33;19916;-83
2022/09/21 09:36:00;;;;;;;;;;;14.30;69.10;;;13.38;100.00;82959.53;4288963;33;19902;-84
2022/09/21 09:38:34;;;;;;;;;;;14.30;68.70;;;-151.14;100.00;62537.16;4265348;33;19902;-83
2022/09/21 09:41:18;;;;;;;;;;;14.30;68.60;;;-151.14;100.00;62537.16;4289725;33;19905;-83
2022/09/21 09:43:57;;;;;;;;;;;14.30;68.40;;;-151.14;100.00;62537.16;4288767;33;19908;-83
2022/09/21 09:46:31;;;;;;;;;;;14.30;68.50;;;13.41;100.00;62537.16;4289597;33;19901;-83
2022/09/21 09:49:14;;;;;;;;;;;14.30;68.70;;;13.41;100.00;62537.16;4264565;33;19921;-83
2022/09/21 09:51:43;;;;;;;;;;;14.30;68.40;;;13.41;100.00;82964.50;4288644;33;20240;-84
2022/09/21 09:54:16;;;;;;;;;;;14.30;68.30;;;13.43;100.00;62537.16;4264465;33;20133;-84
2022/09/21 09:56:45;;;;;;;;;;;14.30;68.50;;;13.43;100.00;82966.63;4264740;33;19909;-83
2022/09/21 09:59:21;;;;;;;;;;;14.30;68.40;;;13.39;100.00;82960.94;4288355;33;20016;-83
2022/09/21 10:02:00;;;;;;;;;;;14.30;68.80;;;13.33;100.00;82953.16;4288370;33;19909;-83
2022/09/21 10:04:28;;;;;;;;;;;14.30;68.90;;;13.30;100.00;82949.59;4264368;33;19902;-83
2022/09/21 10:06:57;;;;;;;;;;;14.20;68.80;;;13.27;100.00;82945.34;4312322;33;19910;-83
2022/09/21 10:09:28;;;;;;;;;;;14.20;69.00;;;-151.14;100.00;62537.16;4312133;33;19916;-83
2022/09/21 10:12:00;;;;;;;;;;;14.20;69.00;;;-151.14;100.00;62537.16;4288419;33;19921;-83
2022/09/21 10:14:31;;;;;;;;;;;14.20;68.90;;;-151.14;100.00;62537.16;4288114;33;19916;-83
2022/09/21 10:17:05;;;;;;;;;;;14.10;68.90;;;-151.14;100.00;62537.16;4264012;33;19902;-83
2022/09/21 10:19:33;;;;;;;;;;;14.10;69.10;;;187.61;100.00;62537.16;4264089;33;19933;-83
2022/09/21 10:22:02;;;;;;;;;;;14.10;69.00;;;-151.14;100.00;62537.16;4289065;33;19909;-83
2022/09/21 10:24:34;;;;;;;;;;;14.10;68.80;;;-151.14;100.00;62537.16;4264010;33;19918;-83
2022/09/21 10:27:05;;;;;;;;;;;14.10;68.90;;;-151.14;100.00;62537.16;4288954;33;20156;-84
2022/09/21 10:29:41;;;;;;;;;;;14.10;69.10;;;13.17;100.00;82931.16;4312145;33;19902;-84
2022/09/21 10:32:24;;;;;;;;;;;14.10;68.90;;;-151.14;100.00;62537.16;4287754;33;19909;-83
2022/09/21 10:35:22;;;;;;;;;;;14.10;69.20;;;-151.14;100.00;62537.16;4311967;33;19902;-83
2022/09/21 10:38:09;;;;;;;;;;;14.10;69.30;;;13.16;100.00;82930.81;4152435;34;19984;-83
2022/09/21 10:40:39;;;;;;;;;;;14.10;69.10;;;-151.14;100.00;62537.16;4251925;33;19910;-83
2022/09/21 10:43:24;;;;;;;;;;;14.10;69.00;;;-151.14;100.00;62537.16;4235828;33;20009;-83
2022/09/21 10:45:54;;;;;;;;;;;14.10;69.10;;;13.16;100.00;62537.16;4307417;33;19922;-83
2022/09/21 10:48:24;;;;;;;;;;;14.10;69.20;;;13.16;100.00;62537.16;4259993;33;19903;-84
2022/09/21 10:50:53;;;;;;;;;;;14.10;69.20;;;-151.14;100.00;62537.16;4235317;33;19909;-83
2022/09/21 10:53:25;;;;;;;;;;;14.10;69.30;;;13.18;100.00;62537.16;4235581;33;19902;-83
2022/09/21 10:55:58;;;;;;;;;;;14.10;69.30;;;-151.14;100.00;62537.16;4259904;33;20256;-83
2022/09/21 10:58:27;;;;;;;;;;;14.10;69.50;;;13.19;100.00;82934.00;4258739;33;19902;-83
2022/09/21 11:00:56;;;;;;;;;;;14.10;69.50;;;-151.14;100.00;62537.16;4306886;33;20307;-83
2022/09/21 11:03:48;;;;;;;;;;;14.10;69.60;;;-151.14;100.00;62537.16;4306895;33;20020;-83
2022/09/21 11:06:19;;;;;;;;;;;14.10;69.70;;;13.18;100.00;82933.31;4259326;33;20222;-83
2022/09/21 11:08:55;;;;;;;;;;;14.10;69.80;;;-151.14;100.00;62537.16;4235912;33;19997;-83
2022/09/21 11:11:39;;;;;;;;;;;14.10;69.60;;;-151.14;100.00;62537.16;4260456;33;20228;-84
2022/09/21 11:14:21;;;;;;;;;;;14.10;69.50;;;-151.14;100.00;62537.16;4259311;33;23025;-83
2022/09/21 11:16:55;;;;;;;;;;;14.10;69.50;;;-151.14;100.00;62537.16;4260227;33;19974;-83
2022/09/21 11:19:30;;;;;;;;;;;14.10;69.10;;;13.12;100.00;62537.16;4260270;33;20315;-83
2022/09/21 11:22:03;;;;;;;;;;;14.10;69.00;;;-151.14;100.00;62537.16;4283327;33;19902;-83